Little Rock Air Force Base
KLRF : now visible

Airfield :











YOU CAN JOIN US ON...

 
LOGIN :

Register | Disclaimer

   EN    FR    IT 

 









Legend :    VFR   Marginal VFR   IFR   Intensive IFR   Very Intensive IFR
Visi :
Ceiling :
>= 8 km
>= 3000ft
5 to 8 km
1000 to 3000 ft
1500m to 5 km
500 to 1000 ft
800 to 1500m
200 to 500 ft
< 800m
< 200 ft
Symbols :   Thunderstorms  Fog  Heavy snow  Heavy precipitations  Wind > 20 kt






- Airport Elevation : 311 ft


KLRF - Little Rock Air Force Base

CURRENT METAR :
  • 200355Z AUTO 00000KT 10SM OVC036 14/10 A3015 RMK AO2 SLP212 T01410103 $

EXPIRED METARs :
  • 200255Z AUTO 00000KT 10SM OVC038 15/12 A3013 RMK AO2 SLP205 T01530117 53017 VISNO RWY25 $
  • 200155Z AUTO 00000KT 10SM OVC031 14/10 A3010 RMK AO2 SLP195 T01430103 $
  • 200120Z AUTO 00000KT 10SM OVC030 15/11 A3009 RMK AO2 SLP192 $
  • 200055Z AUTO 01003KT 10SM OVC028 15/11 A3009 RMK AO2 SLP192 T01510109 VISNO RWY25 $
  • 200005Z AUTO 03003KT 10SM OVC029 16/11 A3009 RMK AO2 SLP192 RVRNO VISNO RWY25 $
  • 192355Z AUTO 04003KT 10SM OVC030 16/10 A3008 RMK AO2 SLP188 T01570100 10166 20146 57005 VISNO RWY25 $

TAF COR TAF KLRF
Valid from the 19 at 23:00 until the 21 at 05:00 UTC


192305Z 1923/2105 04012KT 9999 OVC035 QNH3008INS
BECMG 2011/2012 04009KT 9999 FEW045 BKN050 OVC090 QNH3021INS
BECMG 2017/2018 04012KT 9000 -SHRA FEW045 BKN060 QNH3020INS
BECMG 2101/2102 04009KT 9999 NSW SCT080 BKN150 QNH3020INS TX16/1923Z TN11/2007Z
KZME FIR / North America



MET'MAP, your aeronautical weather chart ! - Copyright ORBIFLY December 2007 - Disclaimer

ORBIFLY MET'MAP TEAM :

Programming & Development : Alexandra Zaïnal
Original concept : Baudouin d'Aumeries
Technical & hardware support : Manuel Goepfert
Assistance : Marc-Olivier Méhu




SOURCES & CREDITS :

   NOAA       Earth
Advisory